Forside
METAR-TAF:

METAR-TAF

Lufthavne :

Wendover Airport

Wendover, Utah, USA

Breddekreds: 40-44N, længdekreds: 114-02W, højde: 1291 m

Aktuelle vejr

Denne rapport blev lavet for 12 minutter siden, kl. 06:56 UTC
Vind 4 kt fra vest
Temperatur 3°C
Fugtighed 52%
Tryk 1019 hPa
Sigt: 16.1 km
skyfri

METAR: KENV 290656Z AUTO 28004KT 10SM CLR 03/M06 A3008 RMK AO2 SLP197 T00281056 400941067

Tid: 00:08 (07:08 UTC)

Vejrudsigter

Denne rapport blev lavet for 1 time og 48 minutter siden, kl. 05:20 UTC
Foreløbig gælder fra 29 på 06 UTC til 01 på 06 UTC
Vind 4 kt fra varierende retninger
Sigt: 10 km
Spredte skyer i en højde af 25000 ft
Fra 29 på 1800 UTC
Vind 7 kt fra sydvest
Sigt: 10 km
Spredte skyer i en højde af 8000 ft
Brudte skyer i en højde af 15000 ft
Fra 01 på 0200 UTC
Vind 10 kt fra nordnordvest
Sigt: 10 km
Spredte skyer i en højde af 4000 ft
Brudte skyer i en højde af 8000 ft

TAF: KENV 290520Z 2906/0106 VRB04KT P6SM SCT250 FM291800 22007KT P6SM SCT080 BKN150 FM010200 33010KT P6SM SCT040 BKN080

Vejrobservationer og prognoser fra mere end 4000 lufthavne (METAR og TAF).

De gule og røde prikker repræsenterer de meteorologiske stationer.

Flyt musen over at se navnet på stationen.

Så klik over at se vejr observationer og prognoser.

At skifte det kort: Klik på de grønne knapper med et sort kors for at zoome ind; på den grønne knap med en bindestreg for at zoome ud; eller på de grønne pile for tilstødende kort.


METAR-TAF: